sensor_id;sensor_type;location;lat;lon;timestamp;P1;durP1;ratioP1;P2;durP2;ratioP2
25125;SDS011;13106;50.808;5.670;2024-02-26T01:06:04;1.65;;;0.95;;
25125;SDS011;13106;50.808;5.670;2024-02-26T01:08:30;3.30;;;1.10;;
25125;SDS011;13106;50.808;5.670;2024-02-26T01:10:56;3.13;;;1.58;;
25125;SDS011;13106;50.808;5.670;2024-02-26T01:13:22;5.05;;;1.20;;
25125;SDS011;13106;50.808;5.670;2024-02-26T01:15:48;1.75;;;1.40;;
25125;SDS011;13106;50.808;5.670;2024-02-26T01:18:14;2.45;;;1.40;;
25125;SDS011;13106;50.808;5.670;2024-02-26T01:20:41;2.25;;;1.50;;
25125;SDS011;13106;50.808;5.670;2024-02-26T01:23:07;2.67;;;1.20;;
25125;SDS011;13106;50.808;5.670;2024-02-26T01:25:33;1.83;;;1.02;;
25125;SDS011;13106;50.808;5.670;2024-02-26T01:27:59;2.80;;;1.42;;
25125;SDS011;13106;50.808;5.670;2024-02-26T01:30:24;1.92;;;1.10;;
25125;SDS011;13106;50.808;5.670;2024-02-26T01:32:51;2.05;;;1.15;;
25125;SDS011;13106;50.808;5.670;2024-02-26T01:35:16;4.75;;;1.40;;
25125;SDS011;13106;50.808;5.670;2024-02-26T01:37:44;1.08;;;0.90;;
25125;SDS011;13106;50.808;5.670;2024-02-26T01:40:10;2.83;;;1.10;;
25125;SDS011;13106;50.808;5.670;2024-02-26T01:42:39;2.50;;;1.15;;
25125;SDS011;13106;50.808;5.670;2024-02-26T01:45:06;2.40;;;1.00;;
25125;SDS011;13106;50.808;5.670;2024-02-26T01:47:35;2.20;;;1.20;;
25125;SDS011;13106;50.808;5.670;2024-02-26T01:50:01;1.27;;;1.10;;
25125;SDS011;13106;50.808;5.670;2024-02-26T01:52:28;1.20;;;1.00;;
25125;SDS011;13106;50.808;5.670;2024-02-26T01:54:54;0.93;;;0.90;;
25125;SDS011;13106;50.808;5.670;2024-02-26T01:57:20;2.20;;;1.13;;
25125;SDS011;13106;50.808;5.670;2024-02-26T01:59:46;1.10;;;0.95;;
25125;SDS011;13106;50.808;5.670;2024-02-26T02:02:12;2.17;;;1.02;;
25125;SDS011;13106;50.808;5.670;2024-02-26T02:04:38;1.67;;;1.02;;
25125;SDS011;13106;50.808;5.670;2024-02-26T02:07:04;1.13;;;0.98;;
25125;SDS011;13106;50.808;5.670;2024-02-26T02:09:30;4.82;;;1.35;;
25125;SDS011;13106;50.808;5.670;2024-02-26T02:11:56;1.65;;;1.10;;
25125;SDS011;13106;50.808;5.670;2024-02-26T02:14:24;3.15;;;1.08;;
25125;SDS011;13106;50.808;5.670;2024-02-26T02:16:50;1.50;;;1.00;;
25125;SDS011;13106;50.808;5.670;2024-02-26T02:19:16;4.00;;;1.10;;
25125;SDS011;13106;50.808;5.670;2024-02-26T02:21:42;2.83;;;1.02;;
25125;SDS011;13106;50.808;5.670;2024-02-26T02:24:08;1.75;;;1.10;;
25125;SDS011;13106;50.808;5.670;2024-02-26T02:26:34;2.05;;;1.00;;
25125;SDS011;13106;50.808;5.670;2024-02-26T02:29:00;3.72;;;1.00;;
25125;SDS011;13106;50.808;5.670;2024-02-26T02:31:27;3.10;;;1.20;;
25125;SDS011;13106;50.808;5.670;2024-02-26T02:33:53;2.70;;;1.20;;
25125;SDS011;13106;50.808;5.670;2024-02-26T02:36:19;1.00;;;0.95;;
25125;SDS011;13106;50.808;5.670;2024-02-26T02:38:48;4.15;;;1.20;;
25125;SDS011;13106;50.808;5.670;2024-02-26T02:41:15;1.58;;;1.10;;
25125;SDS011;13106;50.808;5.670;2024-02-26T02:43:41;3.05;;;1.50;;
25125;SDS011;13106;50.808;5.670;2024-02-26T02:46:07;2.08;;;1.33;;
25125;SDS011;13106;50.808;5.670;2024-02-26T02:48:33;2.08;;;1.00;;
25125;SDS011;13106;50.808;5.670;2024-02-26T02:50:59;1.20;;;1.10;;
25125;SDS011;13106;50.808;5.670;2024-02-26T02:53:25;1.63;;;1.13;;
25125;SDS011;13106;50.808;5.670;2024-02-26T02:55:51;1.50;;;1.20;;
25125;SDS011;13106;50.808;5.670;2024-02-26T02:58:17;1.45;;;1.00;;
25125;SDS011;13106;50.808;5.670;2024-02-26T03:00:43;1.90;;;1.20;;
25125;SDS011;13106;50.808;5.670;2024-02-26T03:03:09;2.28;;;1.35;;
25125;SDS011;13106;50.808;5.670;2024-02-26T03:05:35;2.05;;;1.35;;
25125;SDS011;13106;50.808;5.670;2024-02-26T03:08:01;2.85;;;1.40;;
25125;SDS011;13106;50.808;5.670;2024-02-26T03:10:27;1.80;;;1.10;;
25125;SDS011;13106;50.808;5.670;2024-02-26T03:12:54;2.15;;;1.30;;
25125;SDS011;13106;50.808;5.670;2024-02-26T03:15:21;3.40;;;1.60;;
25125;SDS011;13106;50.808;5.670;2024-02-26T03:17:47;1.63;;;1.20;;
25125;SDS011;13106;50.808;5.670;2024-02-26T03:20:13;1.52;;;0.98;;
25125;SDS011;13106;50.808;5.670;2024-02-26T03:22:39;1.85;;;1.30;;
25125;SDS011;13106;50.808;5.670;2024-02-26T03:25:06;1.50;;;1.10;;
25125;SDS011;13106;50.808;5.670;2024-02-26T03:27:32;1.13;;;1.02;;
25125;SDS011;13106;50.808;5.670;2024-02-26T03:29:58;1.65;;;1.40;;
25125;SDS011;13106;50.808;5.670;2024-02-26T03:32:24;1.30;;;1.13;;
25125;SDS011;13106;50.808;5.670;2024-02-26T03:34:50;1.92;;;1.02;;
25125;SDS011;13106;50.808;5.670;2024-02-26T03:37:19;2.13;;;1.05;;
25125;SDS011;13106;50.808;5.670;2024-02-26T03:39:45;1.38;;;1.13;;
25125;SDS011;13106;50.808;5.670;2024-02-26T03:42:11;1.40;;;1.20;;
25125;SDS011;13106;50.808;5.670;2024-02-26T03:44:37;3.63;;;1.30;;
25125;SDS011;13106;50.808;5.670;2024-02-26T03:47:03;3.90;;;1.17;;
25125;SDS011;13106;50.808;5.670;2024-02-26T03:49:29;1.65;;;1.30;;
25125;SDS011;13106;50.808;5.670;2024-02-26T03:51:56;2.47;;;1.23;;
25125;SDS011;13106;50.808;5.670;2024-02-26T03:54:21;4.00;;;1.27;;
25125;SDS011;13106;50.808;5.670;2024-02-26T03:56:48;1.80;;;1.25;;
25125;SDS011;13106;50.808;5.670;2024-02-26T03:59:14;4.97;;;1.13;;
25125;SDS011;13106;50.808;5.670;2024-02-26T04:01:44;2.20;;;1.33;;
25125;SDS011;13106;50.808;5.670;2024-02-26T04:04:11;3.40;;;1.25;;
25125;SDS011;13106;50.808;5.670;2024-02-26T04:06:37;5.32;;;1.40;;
25125;SDS011;13106;50.808;5.670;2024-02-26T04:09:03;2.70;;;1.10;;
25125;SDS011;13106;50.808;5.670;2024-02-26T04:11:29;2.58;;;1.40;;
25125;SDS011;13106;50.808;5.670;2024-02-26T04:13:56;2.40;;;1.30;;
25125;SDS011;13106;50.808;5.670;2024-02-26T04:16:22;1.75;;;1.30;;
25125;SDS011;13106;50.808;5.670;2024-02-26T04:18:47;1.42;;;1.15;;
25125;SDS011;13106;50.808;5.670;2024-02-26T04:21:14;3.65;;;1.35;;
25125;SDS011;13106;50.808;5.670;2024-02-26T04:23:40;2.92;;;2.72;;
25125;SDS011;13106;50.808;5.670;2024-02-26T04:26:06;1.60;;;1.50;;
25125;SDS011;13106;50.808;5.670;2024-02-26T04:28:32;1.40;;;1.23;;
25125;SDS011;13106;50.808;5.670;2024-02-26T04:30:58;1.27;;;1.10;;
25125;SDS011;13106;50.808;5.670;2024-02-26T04:33:24;1.42;;;1.33;;
25125;SDS011;13106;50.808;5.670;2024-02-26T04:35:50;1.60;;;1.50;;
25125;SDS011;13106;50.808;5.670;2024-02-26T04:38:16;1.98;;;1.30;;
25125;SDS011;13106;50.808;5.670;2024-02-26T04:40:42;1.25;;;1.15;;
25125;SDS011;13106;50.808;5.670;2024-02-26T04:43:08;3.15;;;1.38;;
25125;SDS011;13106;50.808;5.670;2024-02-26T04:45:34;3.50;;;1.83;;
25125;SDS011;13106;50.808;5.670;2024-02-26T04:48:00;1.75;;;1.40;;
25125;SDS011;13106;50.808;5.670;2024-02-26T04:50:26;2.45;;;1.50;;
25125;SDS011;13106;50.808;5.670;2024-02-26T04:52:52;3.42;;;1.40;;
25125;SDS011;13106;50.808;5.670;2024-02-26T04:55:18;1.50;;;1.40;;
25125;SDS011;13106;50.808;5.670;2024-02-26T04:57:44;2.90;;;1.40;;
25125;SDS011;13106;50.808;5.670;2024-02-26T05:00:10;1.65;;;1.17;;
25125;SDS011;13106;50.808;5.670;2024-02-26T05:02:39;1.88;;;1.50;;
25125;SDS011;13106;50.808;5.670;2024-02-26T05:05:05;2.28;;;1.23;;
25125;SDS011;13106;50.808;5.670;2024-02-26T05:07:31;1.30;;;1.20;;
25125;SDS011;13106;50.808;5.670;2024-02-26T05:09:57;3.70;;;1.65;;
25125;SDS011;13106;50.808;5.670;2024-02-26T05:12:24;3.25;;;1.55;;
25125;SDS011;13106;50.808;5.670;2024-02-26T05:14:50;8.48;;;3.35;;
25125;SDS011;13106;50.808;5.670;2024-02-26T05:17:16;2.00;;;1.08;;
25125;SDS011;13106;50.808;5.670;2024-02-26T05:19:42;1.67;;;1.27;;
25125;SDS011;13106;50.808;5.670;2024-02-26T05:22:08;1.30;;;1.20;;
25125;SDS011;13106;50.808;5.670;2024-02-26T05:24:34;1.90;;;1.40;;
25125;SDS011;13106;50.808;5.670;2024-02-26T05:27:03;1.38;;;1.23;;
25125;SDS011;13106;50.808;5.670;2024-02-26T05:29:29;3.20;;;1.30;;
25125;SDS011;13106;50.808;5.670;2024-02-26T05:31:55;4.15;;;1.30;;
25125;SDS011;13106;50.808;5.670;2024-02-26T05:34:21;1.42;;;1.10;;
25125;SDS011;13106;50.808;5.670;2024-02-26T05:36:47;2.53;;;1.17;;
25125;SDS011;13106;50.808;5.670;2024-02-26T05:39:13;1.58;;;1.40;;
25125;SDS011;13106;50.808;5.670;2024-02-26T05:41:39;2.63;;;1.40;;
25125;SDS011;13106;50.808;5.670;2024-02-26T05:44:07;2.90;;;1.20;;
25125;SDS011;13106;50.808;5.670;2024-02-26T05:46:35;3.67;;;1.50;;
25125;SDS011;13106;50.808;5.670;2024-02-26T05:49:01;1.27;;;1.17;;
25125;SDS011;13106;50.808;5.670;2024-02-26T05:51:27;1.40;;;1.30;;
25125;SDS011;13106;50.808;5.670;2024-02-26T05:53:54;1.38;;;1.27;;
25125;SDS011;13106;50.808;5.670;2024-02-26T05:56:23;2.80;;;1.40;;
25125;SDS011;13106;50.808;5.670;2024-02-26T05:58:49;1.77;;;1.33;;
25125;SDS011;13106;50.808;5.670;2024-02-26T06:01:16;1.92;;;1.45;;
25125;SDS011;13106;50.808;5.670;2024-02-26T06:03:42;5.13;;;4.82;;
25125;SDS011;13106;50.808;5.670;2024-02-26T06:06:09;5.03;;;4.75;;
25125;SDS011;13106;50.808;5.670;2024-02-26T06:08:35;5.00;;;3.33;;
25125;SDS011;13106;50.808;5.670;2024-02-26T06:11:05;3.60;;;3.30;;
25125;SDS011;13106;50.808;5.670;2024-02-26T06:13:31;3.30;;;2.10;;
25125;SDS011;13106;50.808;5.670;2024-02-26T06:15:57;4.88;;;4.57;;
25125;SDS011;13106;50.808;5.670;2024-02-26T06:18:23;5.50;;;4.13;;
25125;SDS011;13106;50.808;5.670;2024-02-26T06:20:49;3.25;;;3.03;;
25125;SDS011;13106;50.808;5.670;2024-02-26T06:23:15;2.65;;;1.73;;
25125;SDS011;13106;50.808;5.670;2024-02-26T06:25:42;1.48;;;1.30;;
25125;SDS011;13106;50.808;5.670;2024-02-26T06:28:08;1.85;;;1.73;;
25125;SDS011;13106;50.808;5.670;2024-02-26T06:30:34;2.70;;;1.60;;
25125;SDS011;13106;50.808;5.670;2024-02-26T06:33:01;2.22;;;1.60;;
25125;SDS011;13106;50.808;5.670;2024-02-26T06:35:28;1.83;;;1.67;;
25125;SDS011;13106;50.808;5.670;2024-02-26T06:37:54;1.90;;;1.42;;
25125;SDS011;13106;50.808;5.670;2024-02-26T06:40:20;4.20;;;1.70;;
25125;SDS011;13106;50.808;5.670;2024-02-26T06:42:46;1.50;;;1.40;;
25125;SDS011;13106;50.808;5.670;2024-02-26T06:45:12;2.88;;;1.58;;
25125;SDS011;13106;50.808;5.670;2024-02-26T06:47:38;4.07;;;1.80;;
25125;SDS011;13106;50.808;5.670;2024-02-26T06:50:04;1.90;;;1.60;;
25125;SDS011;13106;50.808;5.670;2024-02-26T06:52:30;2.83;;;2.33;;
25125;SDS011;13106;50.808;5.670;2024-02-26T06:54:56;9.30;;;8.75;;
25125;SDS011;13106;50.808;5.670;2024-02-26T06:57:22;3.13;;;2.20;;
25125;SDS011;13106;50.808;5.670;2024-02-26T06:59:49;2.75;;;2.55;;
25125;SDS011;13106;50.808;5.670;2024-02-26T07:02:15;2.60;;;2.40;;
25125;SDS011;13106;50.808;5.670;2024-02-26T07:04:42;3.97;;;3.17;;
25125;SDS011;13106;50.808;5.670;2024-02-26T07:07:08;3.58;;;2.70;;
25125;SDS011;13106;50.808;5.670;2024-02-26T07:09:35;13.30;;;12.25;;
25125;SDS011;13106;50.808;5.670;2024-02-26T07:12:02;8.52;;;7.95;;
25125;SDS011;13106;50.808;5.670;2024-02-26T07:14:28;8.90;;;8.30;;
25125;SDS011;13106;50.808;5.670;2024-02-26T07:16:54;8.25;;;7.75;;
25125;SDS011;13106;50.808;5.670;2024-02-26T07:19:20;10.98;;;10.13;;
25125;SDS011;13106;50.808;5.670;2024-02-26T07:21:46;9.07;;;8.32;;
25125;SDS011;13106;50.808;5.670;2024-02-26T07:24:12;6.18;;;5.78;;
25125;SDS011;13106;50.808;5.670;2024-02-26T07:26:38;6.90;;;6.32;;
25125;SDS011;13106;50.808;5.670;2024-02-26T07:29:04;8.00;;;7.50;;
25125;SDS011;13106;50.808;5.670;2024-02-26T07:31:30;8.93;;;8.30;;
25125;SDS011;13106;50.808;5.670;2024-02-26T07:33:56;8.07;;;7.57;;
25125;SDS011;13106;50.808;5.670;2024-02-26T07:36:22;10.40;;;9.82;;
25125;SDS011;13106;50.808;5.670;2024-02-26T07:38:48;9.10;;;8.45;;
25125;SDS011;13106;50.808;5.670;2024-02-26T07:41:14;11.25;;;10.52;;
25125;SDS011;13106;50.808;5.670;2024-02-26T07:43:40;10.82;;;10.02;;
25125;SDS011;13106;50.808;5.670;2024-02-26T07:46:06;11.52;;;10.63;;
25125;SDS011;13106;50.808;5.670;2024-02-26T07:48:32;7.75;;;7.15;;
25125;SDS011;13106;50.808;5.670;2024-02-26T07:50:59;7.95;;;7.32;;
25125;SDS011;13106;50.808;5.670;2024-02-26T07:53:25;9.50;;;8.77;;
25125;SDS011;13106;50.808;5.670;2024-02-26T07:55:51;9.90;;;8.95;;
25125;SDS011;13106;50.808;5.670;2024-02-26T07:58:17;12.00;;;11.07;;
25125;SDS011;13106;50.808;5.670;2024-02-26T08:00:43;10.05;;;9.25;;
25125;SDS011;13106;50.808;5.670;2024-02-26T08:03:11;8.95;;;8.18;;
25125;SDS011;13106;50.808;5.670;2024-02-26T08:05:38;7.82;;;7.13;;
25125;SDS011;13106;50.808;5.670;2024-02-26T08:08:06;9.00;;;8.13;;
25125;SDS011;13106;50.808;5.670;2024-02-26T08:10:32;13.50;;;12.60;;
25125;SDS011;13106;50.808;5.670;2024-02-26T08:12:58;10.45;;;9.65;;
25125;SDS011;13106;50.808;5.670;2024-02-26T08:15:33;12.88;;;11.98;;
25125;SDS011;13106;50.808;5.670;2024-02-26T08:18:05;12.90;;;12.00;;
25125;SDS011;13106;50.808;5.670;2024-02-26T08:20:31;8.32;;;7.63;;
25125;SDS011;13106;50.808;5.670;2024-02-26T08:22:57;12.30;;;11.30;;
25125;SDS011;13106;50.808;5.670;2024-02-26T08:25:23;11.25;;;10.43;;
25125;SDS011;13106;50.808;5.670;2024-02-26T08:27:50;8.80;;;7.75;;
25125;SDS011;13106;50.808;5.670;2024-02-26T08:30:16;8.02;;;7.32;;
25125;SDS011;13106;50.808;5.670;2024-02-26T08:32:45;6.88;;;6.30;;
25125;SDS011;13106;50.808;5.670;2024-02-26T08:35:12;6.65;;;5.95;;
25125;SDS011;13106;50.808;5.670;2024-02-26T08:37:38;13.93;;;13.02;;
25125;SDS011;13106;50.808;5.670;2024-02-26T08:40:04;9.98;;;9.18;;
25125;SDS011;13106;50.808;5.670;2024-02-26T08:42:31;6.85;;;4.47;;
25125;SDS011;13106;50.808;5.670;2024-02-26T08:44:57;4.45;;;4.05;;
25125;SDS011;13106;50.808;5.670;2024-02-26T08:47:25;5.03;;;3.65;;
25125;SDS011;13106;50.808;5.670;2024-02-26T08:49:51;4.35;;;3.63;;
25125;SDS011;13106;50.808;5.670;2024-02-26T08:52:17;4.72;;;4.20;;
25125;SDS011;13106;50.808;5.670;2024-02-26T08:54:43;4.72;;;4.22;;
25125;SDS011;13106;50.808;5.670;2024-02-26T08:57:09;4.20;;;3.78;;
25125;SDS011;13106;50.808;5.670;2024-02-26T08:59:35;7.22;;;4.55;;
25125;SDS011;13106;50.808;5.670;2024-02-26T09:02:02;5.13;;;4.63;;
25125;SDS011;13106;50.808;5.670;2024-02-26T09:04:28;4.35;;;3.95;;
25125;SDS011;13106;50.808;5.670;2024-02-26T09:06:54;4.45;;;4.05;;
25125;SDS011;13106;50.808;5.670;2024-02-26T09:09:20;4.88;;;4.28;;
25125;SDS011;13106;50.808;5.670;2024-02-26T09:11:47;5.13;;;4.05;;
25125;SDS011;13106;50.808;5.670;2024-02-26T09:14:16;4.63;;;4.00;;
25125;SDS011;13106;50.808;5.670;2024-02-26T09:16:42;5.35;;;4.30;;
25125;SDS011;13106;50.808;5.670;2024-02-26T09:19:08;5.88;;;4.03;;
25125;SDS011;13106;50.808;5.670;2024-02-26T09:21:34;5.32;;;4.20;;
25125;SDS011;13106;50.808;5.670;2024-02-26T09:24:00;8.43;;;7.53;;
25125;SDS011;13106;50.808;5.670;2024-02-26T09:26:26;25.80;;;21.30;;
25125;SDS011;13106;50.808;5.670;2024-02-26T09:28:52;7.30;;;6.18;;
25125;SDS011;13106;50.808;5.670;2024-02-26T09:31:18;7.32;;;6.68;;
25125;SDS011;13106;50.808;5.670;2024-02-26T09:33:44;28.85;;;21.30;;
25125;SDS011;13106;50.808;5.670;2024-02-26T09:36:11;21.13;;;14.63;;
25125;SDS011;13106;50.808;5.670;2024-02-26T09:38:37;47.03;;;31.50;;
25125;SDS011;13106;50.808;5.670;2024-02-26T09:41:04;44.78;;;27.42;;
25125;SDS011;13106;50.808;5.670;2024-02-26T09:43:34;12.32;;;10.35;;
25125;SDS011;13106;50.808;5.670;2024-02-26T09:46:01;14.00;;;12.52;;
25125;SDS011;13106;50.808;5.670;2024-02-26T09:48:28;6.40;;;5.90;;
25125;SDS011;13106;50.808;5.670;2024-02-26T09:50:54;9.70;;;8.90;;
25125;SDS011;13106;50.808;5.670;2024-02-26T09:53:20;10.63;;;9.50;;
25125;SDS011;13106;50.808;5.670;2024-02-26T09:55:48;6.20;;;5.60;;
25125;SDS011;13106;50.808;5.670;2024-02-26T09:58:14;7.50;;;6.80;;
25125;SDS011;13106;50.808;5.670;2024-02-26T10:00:43;7.25;;;5.90;;
25125;SDS011;13106;50.808;5.670;2024-02-26T10:03:13;14.80;;;9.80;;
25125;SDS011;13106;50.808;5.670;2024-02-26T10:05:40;57.35;;;33.75;;
25125;SDS011;13106;50.808;5.670;2024-02-26T10:08:07;13.25;;;10.13;;
25125;SDS011;13106;50.808;5.670;2024-02-26T10:10:34;17.60;;;14.25;;
25125;SDS011;13106;50.808;5.670;2024-02-26T10:13:00;6.18;;;4.60;;
25125;SDS011;13106;50.808;5.670;2024-02-26T10:15:27;5.32;;;4.82;;
25125;SDS011;13106;50.808;5.670;2024-02-26T10:17:53;4.68;;;4.18;;
25125;SDS011;13106;50.808;5.670;2024-02-26T10:20:19;8.43;;;7.50;;
25125;SDS011;13106;50.808;5.670;2024-02-26T10:22:49;38.08;;;25.48;;
25125;SDS011;13106;50.808;5.670;2024-02-26T10:25:17;47.60;;;30.23;;
25125;SDS011;13106;50.808;5.670;2024-02-26T10:27:44;53.30;;;26.27;;
25125;SDS011;13106;50.808;5.670;2024-02-26T10:30:17;12.02;;;8.90;;
25125;SDS011;13106;50.808;5.670;2024-02-26T10:32:44;2.55;;;2.35;;
25125;SDS011;13106;50.808;5.670;2024-02-26T10:35:11;1.30;;;1.20;;
25125;SDS011;13106;50.808;5.670;2024-02-26T10:37:38;2.70;;;1.65;;
25125;SDS011;13106;50.808;5.670;2024-02-26T10:40:06;3.05;;;1.63;;
25125;SDS011;13106;50.808;5.670;2024-02-26T10:42:32;2.42;;;2.20;;
25125;SDS011;13106;50.808;5.670;2024-02-26T10:44:58;5.30;;;4.90;;
25125;SDS011;13106;50.808;5.670;2024-02-26T10:47:24;5.90;;;5.40;;
25125;SDS011;13106;50.808;5.670;2024-02-26T10:49:50;5.65;;;3.70;;
25125;SDS011;13106;50.808;5.670;2024-02-26T10:52:16;4.45;;;3.45;;
25125;SDS011;13106;50.808;5.670;2024-02-26T10:54:46;3.85;;;3.45;;
25125;SDS011;13106;50.808;5.670;2024-02-26T10:57:13;6.93;;;6.30;;
25125;SDS011;13106;50.808;5.670;2024-02-26T10:59:41;6.28;;;4.03;;
25125;SDS011;13106;50.808;5.670;2024-02-26T11:02:08;4.40;;;3.80;;
25125;SDS011;13106;50.808;5.670;2024-02-26T11:04:36;5.75;;;4.90;;
25125;SDS011;13106;50.808;5.670;2024-02-26T11:07:03;7.10;;;6.40;;
25125;SDS011;13106;50.808;5.670;2024-02-26T11:09:30;4.20;;;3.15;;
25125;SDS011;13106;50.808;5.670;2024-02-26T11:11:57;3.05;;;2.85;;
25125;SDS011;13106;50.808;5.670;2024-02-26T11:14:24;2.65;;;2.03;;
25125;SDS011;13106;50.808;5.670;2024-02-26T11:16:51;8.70;;;8.20;;
25125;SDS011;13106;50.808;5.670;2024-02-26T11:19:17;1.00;;;1.00;;
25125;SDS011;13106;50.808;5.670;2024-02-26T11:21:43;1.33;;;1.20;;
25125;SDS011;13106;50.808;5.670;2024-02-26T11:24:11;4.20;;;4.00;;
25125;SDS011;13106;50.808;5.670;2024-02-26T11:26:42;3.72;;;3.53;;
25125;SDS011;13106;50.808;5.670;2024-02-26T11:29:10;7.00;;;6.70;;
25125;SDS011;13106;50.808;5.670;2024-02-26T11:31:37;1.63;;;1.50;;
25125;SDS011;13106;50.808;5.670;2024-02-26T11:34:03;2.33;;;1.60;;
25125;SDS011;13106;50.808;5.670;2024-02-26T11:36:30;1.92;;;1.83;;
25125;SDS011;13106;50.808;5.670;2024-02-26T11:38:56;3.00;;;2.35;;
25125;SDS011;13106;50.808;5.670;2024-02-26T11:41:22;2.20;;;1.60;;
25125;SDS011;13106;50.808;5.670;2024-02-26T11:43:58;1.73;;;1.40;;
25125;SDS011;13106;50.808;5.670;2024-02-26T11:46:26;2.55;;;1.95;;
25125;SDS011;13106;50.808;5.670;2024-02-26T11:51:37;2.85;;;1.70;;
25125;SDS011;13106;50.808;5.670;2024-02-26T11:54:03;3.25;;;1.58;;
25125;SDS011;13106;50.808;5.670;2024-02-26T11:56:30;3.08;;;1.90;;
25125;SDS011;13106;50.808;5.670;2024-02-26T11:59:00;1.97;;;1.70;;
25125;SDS011;13106;50.808;5.670;2024-02-26T12:04:02;2.88;;;2.65;;
25125;SDS011;13106;50.808;5.670;2024-02-26T12:06:28;2.83;;;2.60;;
25125;SDS011;13106;50.808;5.670;2024-02-26T12:08:55;1.85;;;1.50;;
25125;SDS011;13106;50.808;5.670;2024-02-26T12:11:21;1.77;;;1.67;;
25125;SDS011;13106;50.808;5.670;2024-02-26T12:13:47;3.65;;;2.17;;
25125;SDS011;13106;50.808;5.670;2024-02-26T12:16:32;5.25;;;4.82;;
25125;SDS011;13106;50.808;5.670;2024-02-26T12:19:01;2.53;;;2.03;;
25125;SDS011;13106;50.808;5.670;2024-02-26T12:21:27;1.92;;;1.83;;
25125;SDS011;13106;50.808;5.670;2024-02-26T12:23:53;2.28;;;1.90;;
25125;SDS011;13106;50.808;5.670;2024-02-26T12:26:19;2.50;;;2.30;;
25125;SDS011;13106;50.808;5.670;2024-02-26T12:28:46;1.83;;;1.58;;
25125;SDS011;13106;50.808;5.670;2024-02-26T12:31:12;2.25;;;1.70;;
25125;SDS011;13106;50.808;5.670;2024-02-26T12:33:39;2.80;;;2.60;;
25125;SDS011;13106;50.808;5.670;2024-02-26T12:36:05;3.20;;;1.90;;
25125;SDS011;13106;50.808;5.670;2024-02-26T12:38:31;1.95;;;1.70;;
25125;SDS011;13106;50.808;5.670;2024-02-26T12:40:59;1.95;;;1.65;;
25125;SDS011;13106;50.808;5.670;2024-02-26T12:43:25;3.42;;;1.75;;
25125;SDS011;13106;50.808;5.670;2024-02-26T12:45:51;3.40;;;3.10;;
25125;SDS011;13106;50.808;5.670;2024-02-26T12:48:17;13.13;;;12.32;;
25125;SDS011;13106;50.808;5.670;2024-02-26T12:50:46;11.48;;;10.77;;
25125;SDS011;13106;50.808;5.670;2024-02-26T12:53:12;11.52;;;10.88;;
25125;SDS011;13106;50.808;5.670;2024-02-26T12:55:38;3.45;;;2.45;;
25125;SDS011;13106;50.808;5.670;2024-02-26T12:58:06;4.80;;;2.42;;
25125;SDS011;13106;50.808;5.670;2024-02-26T13:00:32;3.58;;;2.90;;
25125;SDS011;13106;50.808;5.670;2024-02-26T13:02:59;2.92;;;2.63;;
25125;SDS011;13106;50.808;5.670;2024-02-26T13:05:25;4.10;;;3.70;;
25125;SDS011;13106;50.808;5.670;2024-02-26T13:07:51;3.20;;;2.90;;
25125;SDS011;13106;50.808;5.670;2024-02-26T13:10:18;4.22;;;3.33;;
25125;SDS011;13106;50.808;5.670;2024-02-26T13:12:45;3.75;;;3.42;;
25125;SDS011;13106;50.808;5.670;2024-02-26T13:15:21;3.40;;;3.10;;
25125;SDS011;13106;50.808;5.670;2024-02-26T13:17:48;5.78;;;4.85;;
25125;SDS011;13106;50.808;5.670;2024-02-26T13:20:27;4.88;;;2.80;;
25125;SDS011;13106;50.808;5.670;2024-02-26T13:23:03;3.85;;;3.10;;
25125;SDS011;13106;50.808;5.670;2024-02-26T13:25:33;3.45;;;2.95;;
25125;SDS011;13106;50.808;5.670;2024-02-26T13:28:18;4.68;;;2.97;;
25125;SDS011;13106;50.808;5.670;2024-02-26T13:33:18;6.50;;;3.13;;
25125;SDS011;13106;50.808;5.670;2024-02-26T13:35:44;11.60;;;10.90;;
25125;SDS011;13106;50.808;5.670;2024-02-26T13:38:11;9.55;;;8.75;;
25125;SDS011;13106;50.808;5.670;2024-02-26T13:40:37;6.22;;;5.63;;
25125;SDS011;13106;50.808;5.670;2024-02-26T13:43:04;6.07;;;4.85;;
25125;SDS011;13106;50.808;5.670;2024-02-26T13:45:30;5.10;;;4.60;;
25125;SDS011;13106;50.808;5.670;2024-02-26T13:48:01;5.07;;;4.53;;
25125;SDS011;13106;50.808;5.670;2024-02-26T13:50:27;8.55;;;7.78;;
25125;SDS011;13106;50.808;5.670;2024-02-26T13:52:53;8.10;;;7.22;;
25125;SDS011;13106;50.808;5.670;2024-02-26T13:55:20;7.03;;;6.35;;
25125;SDS011;13106;50.808;5.670;2024-02-26T13:57:48;8.63;;;6.95;;
25125;SDS011;13106;50.808;5.670;2024-02-26T14:00:16;12.18;;;11.23;;
25125;SDS011;13106;50.808;5.670;2024-02-26T14:02:43;10.82;;;9.98;;
25125;SDS011;13106;50.808;5.670;2024-02-26T14:05:09;8.68;;;7.95;;
25125;SDS011;13106;50.808;5.670;2024-02-26T14:07:35;7.13;;;5.40;;
25125;SDS011;13106;50.808;5.670;2024-02-26T14:10:01;6.28;;;5.43;;
25125;SDS011;13106;50.808;5.670;2024-02-26T14:12:27;7.25;;;6.55;;
25125;SDS011;13106;50.808;5.670;2024-02-26T14:14:53;7.35;;;5.82;;
25125;SDS011;13106;50.808;5.670;2024-02-26T14:17:20;6.80;;;6.00;;
25125;SDS011;13106;50.808;5.670;2024-02-26T14:19:47;6.93;;;6.20;;
25125;SDS011;13106;50.808;5.670;2024-02-26T14:22:13;8.40;;;6.63;;
25125;SDS011;13106;50.808;5.670;2024-02-26T14:24:41;9.65;;;7.88;;
25125;SDS011;13106;50.808;5.670;2024-02-26T14:27:11;8.15;;;7.25;;
25125;SDS011;13106;50.808;5.670;2024-02-26T14:29:40;9.95;;;6.50;;
25125;SDS011;13106;50.808;5.670;2024-02-26T14:32:08;9.88;;;8.73;;
25125;SDS011;13106;50.808;5.670;2024-02-26T14:34:34;13.52;;;12.38;;
25125;SDS011;13106;50.808;5.670;2024-02-26T14:37:00;10.93;;;9.27;;
25125;SDS011;13106;50.808;5.670;2024-02-26T14:39:26;10.38;;;8.25;;
25125;SDS011;13106;50.808;5.670;2024-02-26T14:41:52;11.73;;;7.95;;
25125;SDS011;13106;50.808;5.670;2024-02-26T14:44:18;10.82;;;8.75;;
25125;SDS011;13106;50.808;5.670;2024-02-26T14:46:44;10.05;;;8.95;;
25125;SDS011;13106;50.808;5.670;2024-02-26T14:49:10;52.15;;;35.53;;
25125;SDS011;13106;50.808;5.670;2024-02-26T14:51:37;90.93;;;49.30;;
25125;SDS011;13106;50.808;5.670;2024-02-26T14:54:03;19.92;;;16.50;;
25125;SDS011;13106;50.808;5.670;2024-02-26T14:56:29;17.98;;;16.25;;
25125;SDS011;13106;50.808;5.670;2024-02-26T14:58:56;15.80;;;14.18;;
25125;SDS011;13106;50.808;5.670;2024-02-26T15:01:23;13.85;;;11.20;;
25125;SDS011;13106;50.808;5.670;2024-02-26T15:03:49;13.18;;;11.13;;
25125;SDS011;13106;50.808;5.670;2024-02-26T15:06:15;13.23;;;11.20;;
25125;SDS011;13106;50.808;5.670;2024-02-26T15:08:41;13.40;;;10.50;;
25125;SDS011;13106;50.808;5.670;2024-02-26T15:11:07;14.93;;;11.50;;
25125;SDS011;13106;50.808;5.670;2024-02-26T15:13:34;14.13;;;12.43;;
25125;SDS011;13106;50.808;5.670;2024-02-26T15:16:01;14.38;;;12.23;;
25125;SDS011;13106;50.808;5.670;2024-02-26T15:18:27;14.32;;;12.40;;
25125;SDS011;13106;50.808;5.670;2024-02-26T15:20:54;15.43;;;11.75;;
25125;SDS011;13106;50.808;5.670;2024-02-26T15:23:20;17.60;;;12.30;;
25125;SDS011;13106;50.808;5.670;2024-02-26T15:25:46;16.77;;;14.88;;
25125;SDS011;13106;50.808;5.670;2024-02-26T15:28:12;19.75;;;17.83;;
25125;SDS011;13106;50.808;5.670;2024-02-26T15:30:40;17.02;;;12.88;;
25125;SDS011;13106;50.808;5.670;2024-02-26T15:33:06;15.13;;;12.02;;
25125;SDS011;13106;50.808;5.670;2024-02-26T15:35:33;16.35;;;11.75;;
25125;SDS011;13106;50.808;5.670;2024-02-26T15:37:59;18.73;;;16.88;;
25125;SDS011;13106;50.808;5.670;2024-02-26T15:40:25;15.90;;;11.80;;
25125;SDS011;13106;50.808;5.670;2024-02-26T15:42:51;17.25;;;11.70;;
25125;SDS011;13106;50.808;5.670;2024-02-26T15:45:17;17.08;;;13.13;;
25125;SDS011;13106;50.808;5.670;2024-02-26T15:47:43;17.02;;;12.27;;
25125;SDS011;13106;50.808;5.670;2024-02-26T15:50:09;17.42;;;12.68;;
25125;SDS011;13106;50.808;5.670;2024-02-26T15:52:38;15.38;;;11.75;;